sensor_id;sensor_type;location;lat;lon;timestamp;P1;durP1;ratioP1;P2;durP2;ratioP2
68315;SDS011;55508;54.368;18.406;2023-02-07T00:01:22;11.00;;;4.25;;
68315;SDS011;55508;54.368;18.406;2023-02-07T00:03:49;8.00;;;3.00;;
68315;SDS011;55508;54.368;18.406;2023-02-07T00:06:18;6.30;;;3.03;;
68315;SDS011;55508;54.368;18.406;2023-02-07T00:08:48;6.28;;;2.85;;
68315;SDS011;55508;54.368;18.406;2023-02-07T00:11:16;4.60;;;1.70;;
68315;SDS011;55508;54.368;18.406;2023-02-07T00:13:46;5.13;;;2.63;;
68315;SDS011;55508;54.368;18.406;2023-02-07T00:16:15;9.35;;;4.20;;
68315;SDS011;55508;54.368;18.406;2023-02-07T00:18:42;5.53;;;3.08;;
68315;SDS011;55508;54.368;18.406;2023-02-07T00:21:10;8.20;;;3.90;;
68315;SDS011;55508;54.368;18.406;2023-02-07T00:23:39;11.75;;;3.78;;
68315;SDS011;55508;54.368;18.406;2023-02-07T00:26:06;8.30;;;4.78;;
68315;SDS011;55508;54.368;18.406;2023-02-07T00:28:34;12.30;;;4.72;;
68315;SDS011;55508;54.368;18.406;2023-02-07T00:33:36;8.70;;;3.37;;
68315;SDS011;55508;54.368;18.406;2023-02-07T00:38:32;9.77;;;3.28;;
68315;SDS011;55508;54.368;18.406;2023-02-07T00:40:59;7.20;;;2.85;;
68315;SDS011;55508;54.368;18.406;2023-02-07T00:43:30;5.97;;;2.75;;
68315;SDS011;55508;54.368;18.406;2023-02-07T00:45:58;6.15;;;3.17;;
68315;SDS011;55508;54.368;18.406;2023-02-07T00:48:28;9.60;;;3.30;;
68315;SDS011;55508;54.368;18.406;2023-02-07T00:50:56;6.75;;;2.97;;
68315;SDS011;55508;54.368;18.406;2023-02-07T00:53:23;8.85;;;3.13;;
68315;SDS011;55508;54.368;18.406;2023-02-07T00:55:51;5.43;;;3.10;;
68315;SDS011;55508;54.368;18.406;2023-02-07T00:58:18;5.10;;;2.95;;
68315;SDS011;55508;54.368;18.406;2023-02-07T01:00:46;7.72;;;3.15;;
68315;SDS011;55508;54.368;18.406;2023-02-07T01:03:13;6.43;;;3.15;;
68315;SDS011;55508;54.368;18.406;2023-02-07T01:05:41;6.07;;;2.53;;
68315;SDS011;55508;54.368;18.406;2023-02-07T01:08:08;3.83;;;2.75;;
68315;SDS011;55508;54.368;18.406;2023-02-07T01:10:37;7.78;;;2.92;;
68315;SDS011;55508;54.368;18.406;2023-02-07T01:13:08;7.28;;;2.90;;
68315;SDS011;55508;54.368;18.406;2023-02-07T01:15:36;5.50;;;2.30;;
68315;SDS011;55508;54.368;18.406;2023-02-07T01:18:05;5.68;;;2.72;;
68315;SDS011;55508;54.368;18.406;2023-02-07T01:20:33;6.60;;;2.78;;
68315;SDS011;55508;54.368;18.406;2023-02-07T01:23:02;8.32;;;2.75;;
68315;SDS011;55508;54.368;18.406;2023-02-07T01:25:30;5.72;;;2.83;;
68315;SDS011;55508;54.368;18.406;2023-02-07T01:27:57;6.78;;;2.80;;
68315;SDS011;55508;54.368;18.406;2023-02-07T01:30:24;5.35;;;2.97;;
68315;SDS011;55508;54.368;18.406;2023-02-07T01:32:51;9.75;;;3.50;;
68315;SDS011;55508;54.368;18.406;2023-02-07T01:35:18;8.63;;;2.78;;
68315;SDS011;55508;54.368;18.406;2023-02-07T01:37:45;6.95;;;2.63;;
68315;SDS011;55508;54.368;18.406;2023-02-07T01:40:12;8.43;;;2.50;;
68315;SDS011;55508;54.368;18.406;2023-02-07T01:42:39;6.13;;;2.70;;
68315;SDS011;55508;54.368;18.406;2023-02-07T01:48:04;2.85;;;2.42;;
68315;SDS011;55508;54.368;18.406;2023-02-07T01:50:44;6.63;;;2.92;;
68315;SDS011;55508;54.368;18.406;2023-02-07T01:53:14;11.07;;;3.70;;
68315;SDS011;55508;54.368;18.406;2023-02-07T01:55:43;4.18;;;2.95;;
68315;SDS011;55508;54.368;18.406;2023-02-07T01:58:11;6.97;;;2.95;;
68315;SDS011;55508;54.368;18.406;2023-02-07T02:00:38;4.63;;;2.72;;
68315;SDS011;55508;54.368;18.406;2023-02-07T02:03:05;10.60;;;2.75;;
68315;SDS011;55508;54.368;18.406;2023-02-07T02:05:32;4.57;;;2.53;;
68315;SDS011;55508;54.368;18.406;2023-02-07T02:08:01;5.47;;;3.03;;
68315;SDS011;55508;54.368;18.406;2023-02-07T02:13:20;5.57;;;2.03;;
68315;SDS011;55508;54.368;18.406;2023-02-07T02:30:03;9.25;;;2.75;;
68315;SDS011;55508;54.368;18.406;2023-02-07T02:43:34;5.63;;;2.85;;
68315;SDS011;55508;54.368;18.406;2023-02-07T02:46:10;8.80;;;2.58;;
68315;SDS011;55508;54.368;18.406;2023-02-07T02:48:41;6.70;;;3.17;;
68315;SDS011;55508;54.368;18.406;2023-02-07T02:51:09;6.05;;;2.45;;
68315;SDS011;55508;54.368;18.406;2023-02-07T02:53:36;6.05;;;2.40;;
68315;SDS011;55508;54.368;18.406;2023-02-07T03:01:57;5.80;;;2.80;;
68315;SDS011;55508;54.368;18.406;2023-02-07T03:04:55;5.82;;;2.90;;
68315;SDS011;55508;54.368;18.406;2023-02-07T03:16:32;6.15;;;3.30;;
68315;SDS011;55508;54.368;18.406;2023-02-07T03:19:16;6.75;;;2.25;;
68315;SDS011;55508;54.368;18.406;2023-02-07T03:21:46;4.47;;;2.60;;
68315;SDS011;55508;54.368;18.406;2023-02-07T03:24:21;7.43;;;2.40;;
68315;SDS011;55508;54.368;18.406;2023-02-07T03:26:51;6.68;;;2.38;;
68315;SDS011;55508;54.368;18.406;2023-02-07T03:29:21;4.43;;;2.65;;
68315;SDS011;55508;54.368;18.406;2023-02-07T03:31:48;5.03;;;2.42;;
68315;SDS011;55508;54.368;18.406;2023-02-07T03:34:18;7.45;;;3.05;;
68315;SDS011;55508;54.368;18.406;2023-02-07T03:36:50;4.47;;;2.47;;
68315;SDS011;55508;54.368;18.406;2023-02-07T03:39:23;7.40;;;2.60;;
68315;SDS011;55508;54.368;18.406;2023-02-07T03:41:51;6.70;;;2.72;;
68315;SDS011;55508;54.368;18.406;2023-02-07T03:44:21;5.70;;;2.33;;
68315;SDS011;55508;54.368;18.406;2023-02-07T03:46:50;4.90;;;2.25;;
68315;SDS011;55508;54.368;18.406;2023-02-07T03:49:17;5.40;;;2.13;;
68315;SDS011;55508;54.368;18.406;2023-02-07T03:51:44;4.97;;;2.47;;
68315;SDS011;55508;54.368;18.406;2023-02-07T03:54:12;4.88;;;2.13;;
68315;SDS011;55508;54.368;18.406;2023-02-07T03:56:39;4.03;;;2.28;;
68315;SDS011;55508;54.368;18.406;2023-02-07T03:59:06;5.72;;;2.42;;
68315;SDS011;55508;54.368;18.406;2023-02-07T04:01:34;4.32;;;2.22;;
68315;SDS011;55508;54.368;18.406;2023-02-07T04:04:06;6.50;;;2.45;;
68315;SDS011;55508;54.368;18.406;2023-02-07T04:06:34;9.88;;;2.88;;
68315;SDS011;55508;54.368;18.406;2023-02-07T04:09:01;10.05;;;3.90;;
68315;SDS011;55508;54.368;18.406;2023-02-07T04:11:29;8.80;;;3.60;;
68315;SDS011;55508;54.368;18.406;2023-02-07T04:13:56;10.50;;;4.13;;
68315;SDS011;55508;54.368;18.406;2023-02-07T04:16:24;7.60;;;4.50;;
68315;SDS011;55508;54.368;18.406;2023-02-07T04:18:51;14.00;;;5.68;;
68315;SDS011;55508;54.368;18.406;2023-02-07T04:21:18;8.13;;;4.75;;
68315;SDS011;55508;54.368;18.406;2023-02-07T04:23:45;5.07;;;3.65;;
68315;SDS011;55508;54.368;18.406;2023-02-07T04:26:12;8.57;;;3.50;;
68315;SDS011;55508;54.368;18.406;2023-02-07T04:28:39;4.28;;;3.03;;
68315;SDS011;55508;54.368;18.406;2023-02-07T04:31:06;7.07;;;3.03;;
68315;SDS011;55508;54.368;18.406;2023-02-07T04:33:33;11.18;;;3.53;;
68315;SDS011;55508;54.368;18.406;2023-02-07T04:36:01;10.23;;;4.45;;
68315;SDS011;55508;54.368;18.406;2023-02-07T04:38:29;12.73;;;4.22;;
68315;SDS011;55508;54.368;18.406;2023-02-07T04:41:00;17.60;;;4.47;;
68315;SDS011;55508;54.368;18.406;2023-02-07T04:43:32;8.85;;;3.40;;
68315;SDS011;55508;54.368;18.406;2023-02-07T04:46:00;8.40;;;3.80;;
68315;SDS011;55508;54.368;18.406;2023-02-07T04:48:28;11.70;;;3.97;;
68315;SDS011;55508;54.368;18.406;2023-02-07T04:50:54;9.45;;;3.80;;
68315;SDS011;55508;54.368;18.406;2023-02-07T04:53:22;7.88;;;3.53;;
68315;SDS011;55508;54.368;18.406;2023-02-07T04:55:49;7.95;;;4.57;;
68315;SDS011;55508;54.368;18.406;2023-02-07T04:58:19;7.57;;;4.07;;
68315;SDS011;55508;54.368;18.406;2023-02-07T05:00:47;12.30;;;5.30;;
68315;SDS011;55508;54.368;18.406;2023-02-07T05:03:14;9.73;;;4.85;;
68315;SDS011;55508;54.368;18.406;2023-02-07T05:05:41;10.77;;;4.47;;
68315;SDS011;55508;54.368;18.406;2023-02-07T05:08:09;11.30;;;5.03;;
68315;SDS011;55508;54.368;18.406;2023-02-07T05:10:37;13.77;;;4.80;;
68315;SDS011;55508;54.368;18.406;2023-02-07T05:13:05;11.00;;;5.13;;
68315;SDS011;55508;54.368;18.406;2023-02-07T05:15:33;16.27;;;6.63;;
68315;SDS011;55508;54.368;18.406;2023-02-07T05:18:00;15.48;;;7.55;;
68315;SDS011;55508;54.368;18.406;2023-02-07T05:20:27;14.80;;;7.60;;
68315;SDS011;55508;54.368;18.406;2023-02-07T05:22:54;17.80;;;7.10;;
68315;SDS011;55508;54.368;18.406;2023-02-07T05:25:22;11.15;;;6.18;;
68315;SDS011;55508;54.368;18.406;2023-02-07T05:27:49;11.93;;;5.90;;
68315;SDS011;55508;54.368;18.406;2023-02-07T05:30:16;16.42;;;7.05;;
68315;SDS011;55508;54.368;18.406;2023-02-07T05:32:43;25.13;;;10.68;;
68315;SDS011;55508;54.368;18.406;2023-02-07T05:35:29;19.23;;;9.25;;
68315;SDS011;55508;54.368;18.406;2023-02-07T05:37:58;15.85;;;9.98;;
68315;SDS011;55508;54.368;18.406;2023-02-07T05:40:27;19.05;;;8.40;;
68315;SDS011;55508;54.368;18.406;2023-02-07T05:42:54;16.20;;;7.97;;
68315;SDS011;55508;54.368;18.406;2023-02-07T05:45:21;14.82;;;8.77;;
68315;SDS011;55508;54.368;18.406;2023-02-07T05:47:48;17.50;;;8.90;;
68315;SDS011;55508;54.368;18.406;2023-02-07T05:50:16;16.48;;;8.15;;
68315;SDS011;55508;54.368;18.406;2023-02-07T05:52:43;20.80;;;8.23;;
68315;SDS011;55508;54.368;18.406;2023-02-07T05:55:10;12.55;;;7.95;;
68315;SDS011;55508;54.368;18.406;2023-02-07T05:57:41;18.30;;;8.60;;
68315;SDS011;55508;54.368;18.406;2023-02-07T06:00:11;14.65;;;6.75;;
68315;SDS011;55508;54.368;18.406;2023-02-07T06:02:39;13.35;;;7.20;;
68315;SDS011;55508;54.368;18.406;2023-02-07T06:05:10;14.63;;;5.65;;
68315;SDS011;55508;54.368;18.406;2023-02-07T06:07:39;8.73;;;4.38;;
68315;SDS011;55508;54.368;18.406;2023-02-07T06:10:06;12.48;;;5.75;;
68315;SDS011;55508;54.368;18.406;2023-02-07T06:12:34;16.42;;;6.45;;
68315;SDS011;55508;54.368;18.406;2023-02-07T06:15:01;14.43;;;7.75;;
68315;SDS011;55508;54.368;18.406;2023-02-07T06:17:28;18.15;;;8.07;;
68315;SDS011;55508;54.368;18.406;2023-02-07T06:19:55;12.52;;;8.27;;
68315;SDS011;55508;54.368;18.406;2023-02-07T06:22:22;17.50;;;8.40;;
68315;SDS011;55508;54.368;18.406;2023-02-07T06:24:49;16.10;;;8.90;;
68315;SDS011;55508;54.368;18.406;2023-02-07T06:27:17;13.93;;;8.27;;
68315;SDS011;55508;54.368;18.406;2023-02-07T06:29:44;25.77;;;13.07;;
68315;SDS011;55508;54.368;18.406;2023-02-07T06:32:11;22.08;;;12.05;;
68315;SDS011;55508;54.368;18.406;2023-02-07T06:34:38;15.57;;;8.45;;
68315;SDS011;55508;54.368;18.406;2023-02-07T06:37:05;18.70;;;9.63;;
68315;SDS011;55508;54.368;18.406;2023-02-07T06:39:32;25.25;;;10.82;;
68315;SDS011;55508;54.368;18.406;2023-02-07T06:41:59;34.28;;;13.25;;
68315;SDS011;55508;54.368;18.406;2023-02-07T06:44:26;87.30;;;29.58;;
68315;SDS011;55508;54.368;18.406;2023-02-07T06:46:53;39.50;;;16.52;;
68315;SDS011;55508;54.368;18.406;2023-02-07T06:49:20;22.55;;;11.68;;
68315;SDS011;55508;54.368;18.406;2023-02-07T06:51:47;23.13;;;11.05;;
68315;SDS011;55508;54.368;18.406;2023-02-07T06:54:14;15.40;;;8.82;;
68315;SDS011;55508;54.368;18.406;2023-02-07T06:56:41;14.77;;;8.68;;
68315;SDS011;55508;54.368;18.406;2023-02-07T06:59:08;16.95;;;9.82;;
68315;SDS011;55508;54.368;18.406;2023-02-07T07:01:35;27.45;;;13.95;;
68315;SDS011;55508;54.368;18.406;2023-02-07T07:04:02;34.50;;;18.02;;
68315;SDS011;55508;54.368;18.406;2023-02-07T07:06:29;35.55;;;18.63;;
68315;SDS011;55508;54.368;18.406;2023-02-07T07:08:56;34.05;;;16.95;;
68315;SDS011;55508;54.368;18.406;2023-02-07T07:11:23;32.22;;;13.48;;
68315;SDS011;55508;54.368;18.406;2023-02-07T07:13:50;23.25;;;14.85;;
68315;SDS011;55508;54.368;18.406;2023-02-07T07:16:17;24.35;;;15.02;;
68315;SDS011;55508;54.368;18.406;2023-02-07T07:18:45;26.13;;;16.05;;
68315;SDS011;55508;54.368;18.406;2023-02-07T07:21:12;23.02;;;13.65;;
68315;SDS011;55508;54.368;18.406;2023-02-07T07:23:39;27.52;;;10.85;;
68315;SDS011;55508;54.368;18.406;2023-02-07T07:26:06;39.13;;;16.17;;
68315;SDS011;55508;54.368;18.406;2023-02-07T07:28:33;64.28;;;22.48;;
68315;SDS011;55508;54.368;18.406;2023-02-07T07:31:01;65.28;;;22.35;;
68315;SDS011;55508;54.368;18.406;2023-02-07T07:35:59;57.20;;;20.85;;
68315;SDS011;55508;54.368;18.406;2023-02-07T07:38:27;132.15;;;50.65;;
68315;SDS011;55508;54.368;18.406;2023-02-07T07:40:54;204.98;;;70.13;;
68315;SDS011;55508;54.368;18.406;2023-02-07T07:43:21;172.73;;;59.58;;
68315;SDS011;55508;54.368;18.406;2023-02-07T07:45:52;138.82;;;47.22;;
68315;SDS011;55508;54.368;18.406;2023-02-07T07:48:21;147.00;;;48.88;;
68315;SDS011;55508;54.368;18.406;2023-02-07T07:50:49;81.07;;;29.63;;
68315;SDS011;55508;54.368;18.406;2023-02-07T07:53:16;51.92;;;19.33;;
68315;SDS011;55508;54.368;18.406;2023-02-07T07:55:53;27.20;;;14.02;;
68315;SDS011;55508;54.368;18.406;2023-02-07T07:58:22;35.10;;;15.43;;
68315;SDS011;55508;54.368;18.406;2023-02-07T08:00:50;57.97;;;19.20;;
68315;SDS011;55508;54.368;18.406;2023-02-07T08:03:17;44.13;;;18.50;;
68315;SDS011;55508;54.368;18.406;2023-02-07T08:05:45;46.88;;;14.98;;
68315;SDS011;55508;54.368;18.406;2023-02-07T08:08:13;48.65;;;16.02;;
68315;SDS011;55508;54.368;18.406;2023-02-07T08:10:40;40.50;;;16.38;;
68315;SDS011;55508;54.368;18.406;2023-02-07T08:13:08;29.67;;;12.88;;
68315;SDS011;55508;54.368;18.406;2023-02-07T08:15:35;26.52;;;12.05;;
68315;SDS011;55508;54.368;18.406;2023-02-07T08:18:02;35.15;;;15.27;;
68315;SDS011;55508;54.368;18.406;2023-02-07T08:20:30;24.40;;;12.98;;
68315;SDS011;55508;54.368;18.406;2023-02-07T08:22:57;30.35;;;14.02;;
68315;SDS011;55508;54.368;18.406;2023-02-07T08:25:24;24.23;;;12.25;;
68315;SDS011;55508;54.368;18.406;2023-02-07T08:27:52;17.25;;;9.32;;
68315;SDS011;55508;54.368;18.406;2023-02-07T08:30:19;13.75;;;8.93;;
68315;SDS011;55508;54.368;18.406;2023-02-07T08:32:47;22.50;;;11.32;;
68315;SDS011;55508;54.368;18.406;2023-02-07T08:35:14;8.93;;;5.75;;
68315;SDS011;55508;54.368;18.406;2023-02-07T08:37:41;19.52;;;8.35;;
68315;SDS011;55508;54.368;18.406;2023-02-07T08:40:09;14.48;;;8.50;;
68315;SDS011;55508;54.368;18.406;2023-02-07T08:42:36;10.57;;;7.82;;
68315;SDS011;55508;54.368;18.406;2023-02-07T08:45:03;7.38;;;6.38;;
68315;SDS011;55508;54.368;18.406;2023-02-07T08:47:31;11.43;;;7.25;;
68315;SDS011;55508;54.368;18.406;2023-02-07T08:49:58;14.13;;;9.73;;
68315;SDS011;55508;54.368;18.406;2023-02-07T08:52:25;8.00;;;6.10;;
68315;SDS011;55508;54.368;18.406;2023-02-07T08:54:55;7.85;;;6.93;;
68315;SDS011;55508;54.368;18.406;2023-02-07T08:57:22;10.73;;;7.13;;
68315;SDS011;55508;54.368;18.406;2023-02-07T08:59:51;14.13;;;8.48;;
68315;SDS011;55508;54.368;18.406;2023-02-07T09:02:19;14.63;;;7.85;;
68315;SDS011;55508;54.368;18.406;2023-02-07T09:04:46;13.93;;;7.38;;
68315;SDS011;55508;54.368;18.406;2023-02-07T09:07:14;14.07;;;6.03;;
68315;SDS011;55508;54.368;18.406;2023-02-07T09:09:41;10.30;;;7.53;;
68315;SDS011;55508;54.368;18.406;2023-02-07T09:12:08;15.25;;;8.30;;
68315;SDS011;55508;54.368;18.406;2023-02-07T09:14:36;13.32;;;7.50;;
68315;SDS011;55508;54.368;18.406;2023-02-07T09:17:04;11.23;;;7.05;;
68315;SDS011;55508;54.368;18.406;2023-02-07T09:19:32;8.60;;;7.13;;
68315;SDS011;55508;54.368;18.406;2023-02-07T09:22:00;13.07;;;7.45;;
68315;SDS011;55508;54.368;18.406;2023-02-07T09:24:27;20.20;;;8.85;;
68315;SDS011;55508;54.368;18.406;2023-02-07T09:26:54;15.63;;;7.25;;
68315;SDS011;55508;54.368;18.406;2023-02-07T09:29:21;10.65;;;7.35;;
68315;SDS011;55508;54.368;18.406;2023-02-07T09:31:48;12.10;;;6.70;;
68315;SDS011;55508;54.368;18.406;2023-02-07T09:34:15;5.80;;;5.28;;
68315;SDS011;55508;54.368;18.406;2023-02-07T09:36:42;11.98;;;5.18;;
68315;SDS011;55508;54.368;18.406;2023-02-07T09:39:10;12.23;;;5.60;;
68315;SDS011;55508;54.368;18.406;2023-02-07T09:47:28;10.85;;;5.85;;
68315;SDS011;55508;54.368;18.406;2023-02-07T09:50:00;10.18;;;6.40;;
68315;SDS011;55508;54.368;18.406;2023-02-07T09:53:15;8.35;;;5.65;;
68315;SDS011;55508;54.368;18.406;2023-02-07T09:55:47;9.88;;;6.68;;
68315;SDS011;55508;54.368;18.406;2023-02-07T09:58:17;6.53;;;5.60;;
68315;SDS011;55508;54.368;18.406;2023-02-07T10:00:51;7.25;;;4.90;;
68315;SDS011;55508;54.368;18.406;2023-02-07T10:03:25;6.45;;;5.82;;
68315;SDS011;55508;54.368;18.406;2023-02-07T10:05:58;6.97;;;4.70;;
68315;SDS011;55508;54.368;18.406;2023-02-07T10:08:44;8.82;;;6.93;;
68315;SDS011;55508;54.368;18.406;2023-02-07T10:11:16;7.28;;;5.70;;
68315;SDS011;55508;54.368;18.406;2023-02-07T10:16:27;13.13;;;5.18;;
68315;SDS011;55508;54.368;18.406;2023-02-07T10:19:28;5.45;;;4.28;;
68315;SDS011;55508;54.368;18.406;2023-02-07T10:27:10;11.38;;;6.78;;
68315;SDS011;55508;54.368;18.406;2023-02-07T10:29:50;11.25;;;7.05;;
68315;SDS011;55508;54.368;18.406;2023-02-07T10:32:26;8.25;;;5.35;;
68315;SDS011;55508;54.368;18.406;2023-02-07T10:34:55;16.30;;;7.13;;
68315;SDS011;55508;54.368;18.406;2023-02-07T10:37:24;8.45;;;5.35;;
68315;SDS011;55508;54.368;18.406;2023-02-07T10:42:38;7.40;;;5.13;;
68315;SDS011;55508;54.368;18.406;2023-02-07T10:45:05;10.65;;;5.18;;
68315;SDS011;55508;54.368;18.406;2023-02-07T10:47:33;5.13;;;4.00;;
68315;SDS011;55508;54.368;18.406;2023-02-07T10:50:13;9.10;;;5.07;;
68315;SDS011;55508;54.368;18.406;2023-02-07T10:52:55;9.43;;;5.40;;
68315;SDS011;55508;54.368;18.406;2023-02-07T10:58:13;12.50;;;7.65;;
68315;SDS011;55508;54.368;18.406;2023-02-07T11:00:52;11.27;;;6.85;;
68315;SDS011;55508;54.368;18.406;2023-02-07T11:03:23;14.27;;;7.78;;
68315;SDS011;55508;54.368;18.406;2023-02-07T11:05:55;12.55;;;8.13;;
68315;SDS011;55508;54.368;18.406;2023-02-07T11:08:32;13.73;;;8.13;;
68315;SDS011;55508;54.368;18.406;2023-02-07T11:13:50;7.03;;;4.68;;
68315;SDS011;55508;54.368;18.406;2023-02-07T11:16:18;6.80;;;4.82;;
68315;SDS011;55508;54.368;18.406;2023-02-07T11:18:59;6.47;;;4.32;;
68315;SDS011;55508;54.368;18.406;2023-02-07T11:23:59;9.23;;;5.03;;
68315;SDS011;55508;54.368;18.406;2023-02-07T11:26:31;11.38;;;7.13;;
68315;SDS011;55508;54.368;18.406;2023-02-07T11:29:45;10.32;;;6.00;;
68315;SDS011;55508;54.368;18.406;2023-02-07T11:31:53;12.07;;;8.18;;
68315;SDS011;55508;54.368;18.406;2023-02-07T11:39:53;19.45;;;9.93;;
68315;SDS011;55508;54.368;18.406;2023-02-07T11:42:23;25.92;;;13.18;;
68315;SDS011;55508;54.368;18.406;2023-02-07T11:44:52;22.13;;;11.82;;
68315;SDS011;55508;54.368;18.406;2023-02-07T11:47:28;26.40;;;13.00;;
68315;SDS011;55508;54.368;18.406;2023-02-07T11:49:59;11.57;;;6.78;;
68315;SDS011;55508;54.368;18.406;2023-02-07T11:52:30;9.88;;;5.93;;
68315;SDS011;55508;54.368;18.406;2023-02-07T11:54:59;14.65;;;7.32;;
68315;SDS011;55508;54.368;18.406;2023-02-07T11:57:29;13.25;;;6.90;;
68315;SDS011;55508;54.368;18.406;2023-02-07T12:02:44;10.20;;;5.97;;
68315;SDS011;55508;54.368;18.406;2023-02-07T12:07:50;9.47;;;6.10;;
68315;SDS011;55508;54.368;18.406;2023-02-07T12:10:29;14.05;;;6.85;;
68315;SDS011;55508;54.368;18.406;2023-02-07T12:13:06;14.30;;;7.50;;
68315;SDS011;55508;54.368;18.406;2023-02-07T12:15:49;20.73;;;10.10;;
68315;SDS011;55508;54.368;18.406;2023-02-07T12:18:28;26.90;;;11.25;;
68315;SDS011;55508;54.368;18.406;2023-02-07T12:21:18;17.45;;;9.25;;
68315;SDS011;55508;54.368;18.406;2023-02-07T12:38:24;17.48;;;9.18;;
68315;SDS011;55508;54.368;18.406;2023-02-07T12:41:12;16.60;;;9.30;;
68315;SDS011;55508;54.368;18.406;2023-02-07T12:46:45;14.27;;;8.65;;
68315;SDS011;55508;54.368;18.406;2023-02-07T13:00:28;15.68;;;9.77;;
68315;SDS011;55508;54.368;18.406;2023-02-07T13:19:59;17.63;;;10.63;;
68315;SDS011;55508;54.368;18.406;2023-02-07T13:22:51;11.98;;;9.75;;
68315;SDS011;55508;54.368;18.406;2023-02-07T13:25:29;17.02;;;10.10;;
68315;SDS011;55508;54.368;18.406;2023-02-07T13:28:02;23.58;;;11.60;;
68315;SDS011;55508;54.368;18.406;2023-02-07T13:33:27;20.52;;;10.98;;
68315;SDS011;55508;54.368;18.406;2023-02-07T13:35:58;13.57;;;9.45;;
68315;SDS011;55508;54.368;18.406;2023-02-07T13:44:11;31.60;;;14.90;;
68315;SDS011;55508;54.368;18.406;2023-02-07T13:52:25;20.33;;;11.52;;
68315;SDS011;55508;54.368;18.406;2023-02-07T13:57:42;12.38;;;8.90;;
68315;SDS011;55508;54.368;18.406;2023-02-07T14:00:29;15.45;;;8.77;;
68315;SDS011;55508;54.368;18.406;2023-02-07T14:02:58;11.70;;;9.07;;
68315;SDS011;55508;54.368;18.406;2023-02-07T14:05:30;13.18;;;8.65;;
68315;SDS011;55508;54.368;18.406;2023-02-07T14:08:06;14.23;;;8.00;;
68315;SDS011;55508;54.368;18.406;2023-02-07T14:10:51;11.88;;;8.18;;
68315;SDS011;55508;54.368;18.406;2023-02-07T14:18:41;12.20;;;8.73;;
68315;SDS011;55508;54.368;18.406;2023-02-07T14:31:59;20.58;;;11.70;;
68315;SDS011;55508;54.368;18.406;2023-02-07T14:34:28;31.77;;;15.75;;
68315;SDS011;55508;54.368;18.406;2023-02-07T14:36:57;33.55;;;18.65;;
68315;SDS011;55508;54.368;18.406;2023-02-07T14:39:30;31.70;;;20.17;;
68315;SDS011;55508;54.368;18.406;2023-02-07T14:42:08;37.10;;;23.77;;
68315;SDS011;55508;54.368;18.406;2023-02-07T14:44:42;48.85;;;30.92;;
68315;SDS011;55508;54.368;18.406;2023-02-07T14:47:31;23.67;;;15.20;;
68315;SDS011;55508;54.368;18.406;2023-02-07T14:50:02;42.15;;;25.70;;
68315;SDS011;55508;54.368;18.406;2023-02-07T14:52:32;61.42;;;36.15;;
68315;SDS011;55508;54.368;18.406;2023-02-07T14:55:03;84.15;;;44.60;;
68315;SDS011;55508;54.368;18.406;2023-02-07T15:02:55;78.88;;;39.45;;
68315;SDS011;55508;54.368;18.406;2023-02-07T15:05:31;59.88;;;27.83;;
68315;SDS011;55508;54.368;18.406;2023-02-07T15:10:33;65.00;;;28.75;;
68315;SDS011;55508;54.368;18.406;2023-02-07T15:13:29;54.55;;;26.20;;
68315;SDS011;55508;54.368;18.406;2023-02-07T15:16:03;54.03;;;26.10;;
68315;SDS011;55508;54.368;18.406;2023-02-07T15:18:36;36.03;;;17.98;;
68315;SDS011;55508;54.368;18.406;2023-02-07T15:21:05;28.80;;;17.27;;
68315;SDS011;55508;54.368;18.406;2023-02-07T15:26:33;28.85;;;19.52;;
68315;SDS011;55508;54.368;18.406;2023-02-07T15:29:02;31.13;;;19.52;;
68315;SDS011;55508;54.368;18.406;2023-02-07T15:31:38;36.22;;;21.15;;
68315;SDS011;55508;54.368;18.406;2023-02-07T15:34:11;37.42;;;24.02;;
68315;SDS011;55508;54.368;18.406;2023-02-07T15:36:41;50.30;;;25.60;;
68315;SDS011;55508;54.368;18.406;2023-02-07T15:39:16;47.27;;;23.97;;
68315;SDS011;55508;54.368;18.406;2023-02-07T15:41:51;35.03;;;21.38;;
68315;SDS011;55508;54.368;18.406;2023-02-07T15:44:20;34.50;;;21.95;;
68315;SDS011;55508;54.368;18.406;2023-02-07T15:46:50;35.65;;;22.83;;
68315;SDS011;55508;54.368;18.406;2023-02-07T15:49:25;43.50;;;24.40;;
68315;SDS011;55508;54.368;18.406;2023-02-07T15:51:59;40.95;;;24.67;;
68315;SDS011;55508;54.368;18.406;2023-02-07T15:54:46;48.65;;;27.02;;
68315;SDS011;55508;54.368;18.406;2023-02-07T15:57:25;55.22;;;29.58;;
68315;SDS011;55508;54.368;18.406;2023-02-07T16:02:44;68.78;;;33.67;;
68315;SDS011;55508;54.368;18.406;2023-02-07T16:08:05;63.85;;;33.50;;
68315;SDS011;55508;54.368;18.406;2023-02-07T16:10:52;68.90;;;32.50;;
68315;SDS011;55508;54.368;18.406;2023-02-07T16:13:20;72.57;;;36.55;;
68315;SDS011;55508;54.368;18.406;2023-02-07T16:15:52;65.95;;;34.08;;
68315;SDS011;55508;54.368;18.406;2023-02-07T16:18:36;76.70;;;38.58;;
68315;SDS011;55508;54.368;18.406;2023-02-07T16:21:31;79.53;;;38.67;;
68315;SDS011;55508;54.368;18.406;2023-02-07T16:24:03;80.28;;;39.80;;
68315;SDS011;55508;54.368;18.406;2023-02-07T16:26:32;84.13;;;43.65;;
68315;SDS011;55508;54.368;18.406;2023-02-07T16:29:03;86.40;;;42.13;;
68315;SDS011;55508;54.368;18.406;2023-02-07T16:31:32;86.93;;;45.25;;
68315;SDS011;55508;54.368;18.406;2023-02-07T16:34:05;99.53;;;46.88;;
68315;SDS011;55508;54.368;18.406;2023-02-07T16:36:33;95.57;;;48.72;;
68315;SDS011;55508;54.368;18.406;2023-02-07T16:39:00;96.32;;;51.30;;
68315;SDS011;55508;54.368;18.406;2023-02-07T16:41:30;86.45;;;46.40;;
68315;SDS011;55508;54.368;18.406;2023-02-07T16:44:01;94.35;;;48.53;;
68315;SDS011;55508;54.368;18.406;2023-02-07T16:46:33;96.75;;;47.58;;
68315;SDS011;55508;54.368;18.406;2023-02-07T16:49:00;87.25;;;44.35;;
68315;SDS011;55508;54.368;18.406;2023-02-07T16:51:28;85.32;;;43.50;;
68315;SDS011;55508;54.368;18.406;2023-02-07T16:53:55;81.75;;;42.20;;
68315;SDS011;55508;54.368;18.406;2023-02-07T16:56:23;71.05;;;38.40;;
68315;SDS011;55508;54.368;18.406;2023-02-07T16:58:51;65.95;;;36.63;;
68315;SDS011;55508;54.368;18.406;2023-02-07T17:01:19;69.53;;;36.55;;
68315;SDS011;55508;54.368;18.406;2023-02-07T17:03:47;68.70;;;35.28;;
68315;SDS011;55508;54.368;18.406;2023-02-07T17:06:15;70.18;;;36.78;;
68315;SDS011;55508;54.368;18.406;2023-02-07T17:08:43;66.05;;;36.78;;
68315;SDS011;55508;54.368;18.406;2023-02-07T17:11:14;71.38;;;39.25;;
68315;SDS011;55508;54.368;18.406;2023-02-07T17:13:51;80.18;;;43.90;;
68315;SDS011;55508;54.368;18.406;2023-02-07T17:16:19;82.80;;;45.05;;
68315;SDS011;55508;54.368;18.406;2023-02-07T17:18:47;85.35;;;45.78;;
68315;SDS011;55508;54.368;18.406;2023-02-07T17:21:15;81.50;;;45.55;;
68315;SDS011;55508;54.368;18.406;2023-02-07T17:23:43;84.70;;;46.97;;
68315;SDS011;55508;54.368;18.406;2023-02-07T17:28:49;121.07;;;70.80;;
68315;SDS011;55508;54.368;18.406;2023-02-07T17:31:17;99.30;;;55.10;;
68315;SDS011;55508;54.368;18.406;2023-02-07T17:33:44;69.05;;;36.72;;
68315;SDS011;55508;54.368;18.406;2023-02-07T17:36:11;62.95;;;36.67;;
68315;SDS011;55508;54.368;18.406;2023-02-07T17:38:39;66.78;;;45.90;;
68315;SDS011;55508;54.368;18.406;2023-02-07T17:41:10;85.70;;;48.40;;
68315;SDS011;55508;54.368;18.406;2023-02-07T17:43:38;49.63;;;29.70;;
68315;SDS011;55508;54.368;18.406;2023-02-07T17:46:12;132.82;;;63.47;;